Aviation Digital Data Service (ADDS)

Output produced by METARs form (0612 UTC 29 May 2015)
found at http://aviationweather.gov/adds/metars/
 
KRME 290540Z 2906/3006 12003KT P6SM SKC 
     FM291500 14005KT P6SM SKC 
     FM300000 12003KT P6SM SCT250